createdAt,value
2022-11-27T00:02:23.823Z,16.36
2022-11-27T00:04:51.184Z,16.36
2022-11-27T00:07:18.649Z,16.17
2022-11-27T00:09:45.382Z,16.23
2022-11-27T00:12:11.939Z,16.09
2022-11-27T00:14:38.490Z,16.07
2022-11-27T00:17:05.793Z,15.31
2022-11-27T00:19:32.632Z,15.10
2022-11-27T00:21:59.143Z,14.66
2022-11-27T00:24:25.685Z,14.96
2022-11-27T00:26:52.303Z,14.64
2022-11-27T00:29:40.570Z,14.15
2022-11-27T00:32:08.170Z,14.38
2022-11-27T00:34:34.981Z,13.96
2022-11-27T00:37:01.912Z,13.92
2022-11-27T00:39:29.769Z,14.55
2022-11-27T00:41:56.885Z,14.70
2022-11-27T00:44:23.510Z,14.79
2022-11-27T00:46:50.263Z,14.96
2022-11-27T00:49:17.067Z,15.01
2022-11-27T00:51:43.831Z,15.19
2022-11-27T00:54:10.944Z,14.63
2022-11-27T00:56:39.272Z,14.13
2022-11-27T00:59:07.381Z,14.11
2022-11-27T01:01:38.159Z,14.35
2022-11-27T01:04:07.441Z,14.27
2022-11-27T01:06:34.049Z,14.01
2022-11-27T01:09:01.173Z,14.42
2022-11-27T01:11:31.624Z,14.16
2022-11-27T01:14:00.996Z,14.06
2022-11-27T01:16:29.806Z,13.46
2022-11-27T01:18:59.485Z,12.97
2022-11-27T01:21:28.305Z,13.33
2022-11-27T01:23:55.204Z,13.34
2022-11-27T01:26:22.272Z,13.27
2022-11-27T01:28:52.281Z,12.96
2022-11-27T01:31:22.839Z,13.36
2022-11-27T01:33:57.352Z,13.37
2022-11-27T01:36:24.979Z,13.69
2022-11-27T01:38:51.885Z,13.56
2022-11-27T01:41:27.918Z,13.49
2022-11-27T01:44:02.564Z,13.53
2022-11-27T01:46:42.714Z,13.60
2022-11-27T01:49:09.376Z,13.36
2022-11-27T01:51:44.772Z,13.53
2022-11-27T01:54:13.562Z,13.22
2022-11-27T01:56:43.664Z,13.06
2022-11-27T01:59:10.501Z,13.19
2022-11-27T02:01:37.275Z,13.35
2022-11-27T02:04:04.057Z,13.15
2022-11-27T02:06:30.742Z,13.23
2022-11-27T02:08:57.585Z,13.36
2022-11-27T02:11:52.695Z,13.67
2022-11-27T02:14:49.753Z,13.52
2022-11-27T02:17:46.460Z,13.80
2022-11-27T02:20:33.821Z,13.89
2022-11-27T02:23:28.529Z,13.78
2022-11-27T02:26:24.796Z,13.63
2022-11-27T02:29:10.370Z,13.47
2022-11-27T02:31:44.694Z,13.67
2022-11-27T02:34:21.633Z,13.80
2022-11-27T02:37:10.100Z,13.37
2022-11-27T02:39:44.544Z,13.01
2022-11-27T02:42:16.817Z,13.46
2022-11-27T02:44:52.870Z,13.62
2022-11-27T02:47:20.781Z,13.79
2022-11-27T02:49:51.214Z,13.95
2022-11-27T02:52:19.907Z,14.18
2022-11-27T02:54:49.568Z,14.33
2022-11-27T02:57:17.967Z,14.18
2022-11-27T02:59:45.716Z,14.45
2022-11-27T03:02:23.373Z,14.86
2022-11-27T03:04:54.017Z,14.81
2022-11-27T03:07:39.057Z,15.00
2022-11-27T03:10:20.614Z,14.77
2022-11-27T03:12:48.836Z,14.64
2022-11-27T03:15:15.609Z,14.70
2022-11-27T03:17:55.365Z,14.53
2022-11-27T03:20:26.924Z,14.38
2022-11-27T03:22:56.997Z,14.44
2022-11-27T03:25:24.672Z,13.95
2022-11-27T03:28:04.797Z,13.93
2022-11-27T03:30:31.759Z,13.89
2022-11-27T03:32:58.752Z,13.95
2022-11-27T03:35:26.991Z,14.00
2022-11-27T03:37:55.194Z,14.24
2022-11-27T03:40:29.263Z,13.71
2022-11-27T03:43:08.380Z,13.50
2022-11-27T03:46:00.417Z,13.65
2022-11-27T03:48:42.079Z,13.36
2022-11-27T03:51:20.537Z,13.44
2022-11-27T03:54:18.245Z,13.23
2022-11-27T03:56:57.787Z,13.25
2022-11-27T03:59:36.410Z,13.55
2022-11-27T04:02:03.729Z,13.33
2022-11-27T04:04:41.108Z,13.33
2022-11-27T04:07:15.895Z,12.95
2022-11-27T04:09:42.486Z,12.53
2022-11-27T04:12:09.092Z,12.71
2022-11-27T04:14:36.108Z,12.92
2022-11-27T04:17:02.652Z,13.12
2022-11-27T04:19:29.220Z,12.69
2022-11-27T04:21:56.157Z,12.99
2022-11-27T04:24:22.683Z,13.16
2022-11-27T04:26:49.555Z,13.34
2022-11-27T04:29:16.186Z,13.45
2022-11-27T04:31:43.145Z,13.85
2022-11-27T04:34:10.056Z,14.09
2022-11-27T04:36:39.498Z,14.19
2022-11-27T04:39:06.566Z,14.19
2022-11-27T04:41:33.463Z,14.21
2022-11-27T04:44:00.114Z,14.41
2022-11-27T04:46:27.384Z,13.96
2022-11-27T04:48:53.940Z,13.66
2022-11-27T04:51:21.035Z,13.45
2022-11-27T04:53:47.893Z,13.38
2022-11-27T04:56:15.549Z,13.16
2022-11-27T04:58:42.084Z,12.66
2022-11-27T05:01:09.906Z,12.47
2022-11-27T05:03:36.494Z,12.39
2022-11-27T05:06:03.580Z,12.31
2022-11-27T05:08:33.087Z,12.08
2022-11-27T05:11:04.949Z,11.94
2022-11-27T05:13:31.517Z,11.84
2022-11-27T05:15:58.148Z,11.77
2022-11-27T05:18:25.082Z,11.47
2022-11-27T05:20:58.719Z,11.33
2022-11-27T05:23:25.886Z,11.22
2022-11-27T05:25:52.615Z,11.50
2022-11-27T05:28:26.271Z,11.53
2022-11-27T05:30:53.325Z,11.69
2022-11-27T05:33:20.315Z,11.61
2022-11-27T05:35:46.901Z,11.52
2022-11-27T05:38:13.444Z,11.37
2022-11-27T05:40:39.972Z,11.23
2022-11-27T05:43:07.004Z,11.23
2022-11-27T05:45:34.057Z,11.75
2022-11-27T05:48:01.075Z,11.53
2022-11-27T05:50:27.617Z,11.97
2022-11-27T05:52:54.162Z,11.85
2022-11-27T05:55:20.705Z,11.89
2022-11-27T05:57:47.383Z,11.70
2022-11-27T06:00:15.236Z,11.77
2022-11-27T06:02:41.958Z,11.58
2022-11-27T06:05:08.941Z,11.50
2022-11-27T06:07:35.488Z,11.46
2022-11-27T06:10:02.065Z,11.51
2022-11-27T06:12:28.580Z,11.94
2022-11-27T06:14:55.412Z,12.43
2022-11-27T06:17:22.262Z,12.20
2022-11-27T06:19:48.784Z,12.20
2022-11-27T06:22:15.347Z,11.90
2022-11-27T06:24:42.102Z,11.90
2022-11-27T06:27:08.993Z,12.19
2022-11-27T06:29:37.321Z,12.21
2022-11-27T06:32:05.050Z,12.25
2022-11-27T06:34:31.604Z,12.26
2022-11-27T06:36:58.440Z,12.50
2022-11-27T06:39:24.959Z,12.36
2022-11-27T06:41:51.534Z,12.61
2022-11-27T06:44:18.409Z,12.59
2022-11-27T06:46:45.422Z,12.58
2022-11-27T06:49:11.999Z,13.06
2022-11-27T06:51:38.883Z,12.63
2022-11-27T06:54:05.511Z,12.61
2022-11-27T06:56:32.134Z,12.50
2022-11-27T06:59:00.622Z,11.75
2022-11-27T07:01:29.506Z,11.84
2022-11-27T07:03:57.125Z,12.13
2022-11-27T07:06:25.763Z,11.77
2022-11-27T07:08:54.657Z,11.91
2022-11-27T07:11:24.234Z,11.75
2022-11-27T07:13:52.258Z,11.22
2022-11-27T07:16:19.145Z,10.51
2022-11-27T07:18:49.091Z,10.94
2022-11-27T07:21:16.105Z,10.83
2022-11-27T07:23:42.946Z,10.82
2022-11-27T07:26:15.081Z,10.87
2022-11-27T07:28:43.733Z,11.22
2022-11-27T07:31:21.696Z,11.21
2022-11-27T07:33:48.862Z,10.82
2022-11-27T07:36:17.814Z,11.38
2022-11-27T07:38:45.140Z,11.84
2022-11-27T07:41:12.574Z,11.79
2022-11-27T07:43:41.943Z,12.06
2022-11-27T07:46:12.356Z,12.52
2022-11-27T07:48:38.977Z,12.19
2022-11-27T07:51:06.969Z,12.64
2022-11-27T07:53:36.847Z,12.73
2022-11-27T07:56:04.280Z,13.03
2022-11-27T07:58:31.629Z,13.19
2022-11-27T08:00:58.616Z,12.94
2022-11-27T08:03:25.763Z,13.74
2022-11-27T08:05:52.405Z,13.39
2022-11-27T08:08:18.990Z,13.94
2022-11-27T08:10:45.624Z,14.15
2022-11-27T08:13:12.353Z,14.50
2022-11-27T08:15:38.915Z,14.92
2022-11-27T08:18:05.488Z,15.73
2022-11-27T08:20:32.146Z,16.17
2022-11-27T08:23:02.782Z,16.43
2022-11-27T08:25:30.511Z,15.62
2022-11-27T08:27:57.108Z,15.68
2022-11-27T08:30:24.023Z,15.71
2022-11-27T08:32:50.748Z,15.56
2022-11-27T08:35:17.515Z,15.81
2022-11-27T08:37:45.329Z,15.32
2022-11-27T08:40:12.226Z,15.14
2022-11-27T08:42:38.847Z,14.31
2022-11-27T08:45:05.762Z,14.15
2022-11-27T08:47:32.612Z,13.94
2022-11-27T08:49:59.159Z,13.81
2022-11-27T08:52:26.381Z,13.45
2022-11-27T08:54:57.486Z,14.16
2022-11-27T08:57:24.905Z,13.92
2022-11-27T08:59:51.561Z,14.10
2022-11-27T09:02:18.543Z,14.69
2022-11-27T09:04:45.381Z,14.19
2022-11-27T09:07:14.282Z,14.51
2022-11-27T09:09:41.065Z,14.43
2022-11-27T09:12:08.275Z,13.88
2022-11-27T09:14:34.799Z,13.55
2022-11-27T09:17:01.811Z,13.73
2022-11-27T09:19:29.103Z,13.50
2022-11-27T09:21:56.142Z,13.21
2022-11-27T09:24:22.935Z,13.55
2022-11-27T09:26:49.485Z,13.52
2022-11-27T09:29:16.052Z,13.25
2022-11-27T09:31:43.173Z,13.85
2022-11-27T09:34:09.807Z,13.62
2022-11-27T09:36:36.374Z,13.94
2022-11-27T09:39:03.777Z,14.83
2022-11-27T09:41:41.614Z,15.31
2022-11-27T09:44:20.252Z,16.36
2022-11-27T09:46:46.871Z,16.09
2022-11-27T09:49:19.946Z,15.80
2022-11-27T09:52:14.493Z,15.57
2022-11-27T09:54:52.639Z,15.30
2022-11-27T09:57:27.269Z,14.85
2022-11-27T09:59:54.339Z,14.88
2022-11-27T10:02:31.690Z,14.23
2022-11-27T10:05:16.233Z,14.37
2022-11-27T10:08:16.364Z,14.39
2022-11-27T10:11:14.170Z,14.06
2022-11-27T10:14:00.028Z,14.88
2022-11-27T10:16:44.071Z,14.88
2022-11-27T10:19:28.320Z,14.13
2022-11-27T10:22:07.438Z,14.50
2022-11-27T10:24:45.647Z,14.35
2022-11-27T10:27:24.413Z,14.09
2022-11-27T10:29:55.628Z,13.62
2022-11-27T10:32:54.130Z,14.39
2022-11-27T10:35:16.920Z,13.84
2022-11-27T10:37:52.879Z,13.90
2022-11-27T10:40:31.507Z,13.68
2022-11-27T10:43:12.808Z,13.77
2022-11-27T10:46:03.784Z,14.04
2022-11-27T10:48:30.525Z,14.24
2022-11-27T10:50:57.234Z,14.02
2022-11-27T10:53:35.269Z,13.73
2022-11-27T10:56:04.848Z,14.38
2022-11-27T10:58:54.465Z,14.34
2022-11-27T11:01:22.858Z,14.61
2022-11-27T11:03:49.668Z,14.63
2022-11-27T11:06:22.391Z,14.59
2022-11-27T11:09:02.924Z,14.15
2022-11-27T11:11:29.478Z,14.34
2022-11-27T11:13:56.100Z,14.49
2022-11-27T11:16:34.825Z,14.83
2022-11-27T11:19:03.905Z,14.76
2022-11-27T11:21:34.943Z,14.85
2022-11-27T11:24:02.746Z,14.95
2022-11-27T11:26:40.240Z,15.62
2022-11-27T11:29:38.735Z,15.26
2022-11-27T11:32:21.352Z,15.14
2022-11-27T11:34:56.213Z,15.08
2022-11-27T11:37:29.336Z,15.12
2022-11-27T11:40:03.993Z,15.39
2022-11-27T11:42:33.543Z,15.69
2022-11-27T11:45:13.238Z,15.95
2022-11-27T11:47:48.032Z,16.31
2022-11-27T11:50:22.872Z,15.87
2022-11-27T11:53:22.745Z,15.85
2022-11-27T11:56:04.013Z,15.89
2022-11-27T11:58:50.796Z,15.99
2022-11-27T12:01:43.381Z,15.37
2022-11-27T12:04:39.962Z,15.09
2022-11-27T12:07:14.474Z,15.82
2022-11-27T12:10:02.201Z,15.26
2022-11-27T12:12:47.568Z,15.21
2022-11-27T12:15:34.229Z,15.20
2022-11-27T12:18:09.697Z,15.19
2022-11-27T12:21:05.073Z,14.81
2022-11-27T12:23:43.556Z,15.04
2022-11-27T12:26:48.198Z,15.33
2022-11-27T12:29:32.842Z,15.74
2022-11-27T12:32:14.666Z,15.87
2022-11-27T12:35:06.957Z,15.83
2022-11-27T12:37:42.168Z,15.16
2022-11-27T12:40:17.673Z,14.83
2022-11-27T12:42:59.523Z,14.93
2022-11-27T12:45:35.181Z,15.52
2022-11-27T12:48:08.271Z,15.98
2022-11-27T12:50:38.180Z,15.84
2022-11-27T12:53:35.837Z,15.32
2022-11-27T12:56:33.401Z,15.18
2022-11-27T12:59:21.440Z,15.30
2022-11-27T13:01:56.287Z,15.48
2022-11-27T13:04:40.235Z,15.44
2022-11-27T13:07:23.006Z,15.86
2022-11-27T13:10:16.307Z,16.08
2022-11-27T13:13:02.486Z,16.40
2022-11-27T13:15:48.746Z,16.31
2022-11-27T13:18:31.103Z,16.51
2022-11-27T13:21:01.450Z,15.87
2022-11-27T13:23:32.656Z,16.04
2022-11-27T13:26:03.864Z,16.45
2022-11-27T13:28:41.559Z,16.63
2022-11-27T13:31:16.059Z,16.60
2022-11-27T13:33:46.197Z,15.89
2022-11-27T13:36:23.787Z,16.32
2022-11-27T13:38:55.598Z,15.94
2022-11-27T13:41:26.206Z,15.60
2022-11-27T13:43:53.363Z,15.86
2022-11-27T13:46:25.540Z,15.56
2022-11-27T13:49:03.248Z,16.08
2022-11-27T13:51:33.227Z,15.86
2022-11-27T13:54:12.029Z,15.95
2022-11-27T13:56:41.317Z,16.32
2022-11-27T13:59:22.395Z,16.53
2022-11-27T14:02:00.115Z,16.32
2022-11-27T14:04:30.778Z,16.71
2022-11-27T14:07:09.674Z,16.56
2022-11-27T14:09:41.261Z,16.12
2022-11-27T14:12:27.098Z,16.40
2022-11-27T14:15:01.534Z,16.25
2022-11-27T14:17:41.393Z,16.31
2022-11-27T14:20:13.804Z,16.36
2022-11-27T14:23:07.211Z,16.12
2022-11-27T14:25:33.906Z,16.31
2022-11-27T14:28:12.932Z,16.55
2022-11-27T14:30:51.122Z,16.07
2022-11-27T14:33:29.408Z,16.29
2022-11-27T14:36:00.370Z,16.12
2022-11-27T14:38:28.753Z,15.97
2022-11-27T14:41:09.228Z,16.06
2022-11-27T14:43:35.795Z,16.51
2022-11-27T14:46:04.682Z,16.64
2022-11-27T14:48:43.597Z,16.55
2022-11-27T14:51:17.580Z,16.34
2022-11-27T14:53:47.089Z,16.53
2022-11-27T14:56:16.182Z,16.31
2022-11-27T14:58:53.344Z,16.37
2022-11-27T15:01:31.926Z,16.00
2022-11-27T15:04:06.092Z,16.05
2022-11-27T15:06:39.232Z,16.12
2022-11-27T15:09:32.823Z,15.82
2022-11-27T15:11:56.966Z,15.90
2022-11-27T15:14:28.357Z,16.07
2022-11-27T15:16:56.828Z,15.93
2022-11-27T15:19:37.545Z,16.54
2022-11-27T15:22:04.972Z,16.51
2022-11-27T15:24:34.663Z,16.55
2022-11-27T15:27:16.906Z,16.27
2022-11-27T15:29:49.690Z,16.56
2022-11-27T15:32:23.252Z,16.59
2022-11-27T15:34:51.905Z,16.47
2022-11-27T15:37:25.556Z,15.96
2022-11-27T15:39:53.979Z,16.26
2022-11-27T15:42:22.181Z,16.39
2022-11-27T15:44:52.713Z,15.80
2022-11-27T15:47:27.391Z,15.72
2022-11-27T15:49:54.493Z,15.92
2022-11-27T15:52:21.498Z,15.81
2022-11-27T15:54:48.403Z,16.44
2022-11-27T15:57:15.340Z,16.36
2022-11-27T15:59:41.912Z,16.00
2022-11-27T16:02:17.312Z,16.27
2022-11-27T16:04:44.665Z,15.75
2022-11-27T16:07:11.684Z,16.25
2022-11-27T16:09:39.700Z,16.05
2022-11-27T16:12:06.984Z,16.10
2022-11-27T16:14:33.707Z,15.88
2022-11-27T16:17:01.623Z,15.58
2022-11-27T16:19:28.641Z,15.58
2022-11-27T16:21:56.692Z,15.56
2022-11-27T16:24:23.986Z,16.09
2022-11-27T16:26:50.669Z,15.58
2022-11-27T16:29:17.400Z,15.62
2022-11-27T16:31:44.131Z,16.10
2022-11-27T16:34:11.728Z,15.51
2022-11-27T16:36:42.223Z,15.98
2022-11-27T16:39:10.686Z,15.83
2022-11-27T16:41:38.808Z,16.00
2022-11-27T16:44:14.354Z,16.52
2022-11-27T16:46:43.885Z,16.46
2022-11-27T16:49:11.169Z,16.48
2022-11-27T16:51:40.599Z,16.17
2022-11-27T16:54:12.158Z,16.15
2022-11-27T16:56:41.251Z,16.49
2022-11-27T16:59:11.298Z,16.29
2022-11-27T17:01:40.960Z,16.73
2022-11-27T17:04:09.983Z,15.78
2022-11-27T17:06:38.666Z,15.93
2022-11-27T17:09:07.476Z,15.94
2022-11-27T17:11:37.251Z,16.02
2022-11-27T17:14:07.252Z,16.07
2022-11-27T17:16:36.568Z,15.66
2022-11-27T17:19:04.178Z,15.53
2022-11-27T17:21:34.416Z,15.42
2022-11-27T17:24:04.531Z,15.30
2022-11-27T17:26:38.952Z,15.17
2022-11-27T17:29:05.933Z,14.93
2022-11-27T17:31:35.359Z,14.85
2022-11-27T17:34:04.704Z,14.77
2022-11-27T17:36:36.877Z,14.33
2022-11-27T17:39:06.134Z,14.55
2022-11-27T17:41:33.839Z,14.65
2022-11-27T17:44:02.359Z,15.05
2022-11-27T17:46:29.252Z,14.90
2022-11-27T17:48:59.128Z,14.96
2022-11-27T17:51:27.672Z,14.95
2022-11-27T17:53:55.071Z,15.54
2022-11-27T17:56:24.199Z,15.12
2022-11-27T17:58:51.149Z,15.16
2022-11-27T18:01:25.022Z,15.46
2022-11-27T18:03:55.817Z,15.24
2022-11-27T18:06:23.784Z,15.18
2022-11-27T18:08:52.733Z,14.99
2022-11-27T18:11:22.659Z,15.17
2022-11-27T18:13:50.966Z,15.08
2022-11-27T18:16:38.027Z,15.12
2022-11-27T18:19:07.459Z,15.39
2022-11-27T18:21:36.587Z,15.90
2022-11-27T18:27:09.691Z,15.24
2022-11-27T18:29:38.821Z,15.37
2022-11-27T18:32:06.573Z,15.48
2022-11-27T18:34:33.778Z,15.51
2022-11-27T18:37:00.841Z,15.53
2022-11-27T18:39:28.219Z,15.51
2022-11-27T18:41:55.141Z,15.26
2022-11-27T18:44:22.482Z,15.09
2022-11-27T18:46:49.196Z,14.79
2022-11-27T18:49:16.076Z,14.99
2022-11-27T18:51:42.875Z,14.54
2022-11-27T18:54:09.630Z,14.80
2022-11-27T18:56:37.571Z,14.51
2022-11-27T18:59:06.237Z,14.43
2022-11-27T19:01:41.307Z,14.41
2022-11-27T19:04:10.884Z,14.37
2022-11-27T19:06:39.310Z,14.70
2022-11-27T19:09:06.898Z,14.58
2022-11-27T19:11:34.847Z,14.18
2022-11-27T19:14:03.043Z,14.29
2022-11-27T19:16:45.879Z,14.75
2022-11-27T19:22:07.024Z,14.71
2022-11-27T19:24:34.272Z,14.57
2022-11-27T19:27:01.005Z,14.53
2022-11-27T19:29:28.136Z,15.24
2022-11-27T19:31:57.635Z,15.43
2022-11-27T19:34:25.100Z,15.63
2022-11-27T19:36:52.901Z,15.23
2022-11-27T19:39:20.242Z,14.90
2022-11-27T19:41:48.691Z,14.81
2022-11-27T19:44:17.404Z,15.34
2022-11-27T19:46:46.321Z,14.29
2022-11-27T19:49:17.889Z,14.37
2022-11-27T19:51:46.566Z,14.70
2022-11-27T19:54:15.566Z,14.65
2022-11-27T19:56:43.417Z,14.92
2022-11-27T19:59:12.368Z,14.85
2022-11-27T20:01:40.794Z,15.00
2022-11-27T20:04:10.357Z,15.29
2022-11-27T20:06:37.093Z,14.82
2022-11-27T20:09:05.181Z,14.87
2022-11-27T20:11:35.409Z,14.82
2022-11-27T20:14:05.742Z,14.97
2022-11-27T20:16:33.675Z,15.24
2022-11-27T20:19:02.502Z,15.17
2022-11-27T20:21:29.236Z,15.47
2022-11-27T20:23:57.813Z,14.88
2022-11-27T20:26:27.267Z,14.59
2022-11-27T20:28:54.999Z,14.39
2022-11-27T20:31:25.119Z,14.12
2022-11-27T20:33:55.569Z,14.48
2022-11-27T20:36:23.552Z,14.96
2022-11-27T20:38:52.202Z,15.22
2022-11-27T20:41:21.346Z,15.91
2022-11-27T20:43:50.735Z,14.86
2022-11-27T20:46:18.088Z,14.83
2022-11-27T20:48:50.127Z,15.35
2022-11-27T20:51:20.958Z,15.15
2022-11-27T20:53:48.606Z,15.65
2022-11-27T20:56:17.552Z,15.16
2022-11-27T20:58:45.962Z,15.13
2022-11-27T21:01:29.537Z,15.08
2022-11-27T21:03:57.530Z,14.97
2022-11-27T21:06:27.481Z,14.91
2022-11-27T21:08:54.764Z,15.27
2022-11-27T21:11:25.075Z,14.61
2022-11-27T21:14:02.155Z,15.42
2022-11-27T21:16:31.020Z,15.13
2022-11-27T21:19:02.209Z,15.57
2022-11-27T21:21:29.349Z,15.24
2022-11-27T21:23:56.804Z,14.86
2022-11-27T21:26:23.443Z,14.54
2022-11-27T21:28:50.823Z,15.18
2022-11-27T21:31:20.078Z,15.11
2022-11-27T21:33:51.810Z,15.12
2022-11-27T21:36:21.037Z,15.42
2022-11-27T21:38:47.856Z,16.01
2022-11-27T21:41:14.496Z,15.41
2022-11-27T21:43:41.424Z,14.64
2022-11-27T21:46:12.532Z,15.03
2022-11-27T21:48:40.040Z,15.23
2022-11-27T21:51:12.459Z,15.62
2022-11-27T21:53:40.388Z,15.66
2022-11-27T21:56:09.281Z,16.36
2022-11-27T21:58:37.525Z,16.26
2022-11-27T22:01:06.461Z,16.08
2022-11-27T22:03:35.694Z,15.81
2022-11-27T22:06:08.473Z,15.96
2022-11-27T22:08:36.304Z,15.71
2022-11-27T22:11:07.675Z,15.71
2022-11-27T22:13:35.108Z,15.29
2022-11-27T22:16:07.831Z,15.13
2022-11-27T22:18:34.768Z,15.24
2022-11-27T22:21:06.555Z,15.51
2022-11-27T22:23:33.438Z,15.56
2022-11-27T22:26:01.805Z,15.30
2022-11-27T22:28:29.510Z,15.46
2022-11-27T22:30:57.324Z,15.45
2022-11-27T22:33:24.483Z,15.53
2022-11-27T22:35:51.215Z,15.66
2022-11-27T22:38:17.914Z,15.36
2022-11-27T22:40:44.812Z,15.58
2022-11-27T22:43:11.383Z,15.41
2022-11-27T22:45:39.517Z,15.25
2022-11-27T22:48:06.367Z,15.12
2022-11-27T22:50:33.073Z,15.22
2022-11-27T22:52:59.830Z,14.79
2022-11-27T22:55:28.095Z,14.96
2022-11-27T22:57:54.689Z,14.69
2022-11-27T23:00:21.523Z,14.60
2022-11-27T23:02:48.129Z,14.55
2022-11-27T23:05:15.504Z,14.99
2022-11-27T23:07:42.049Z,15.28
2022-11-27T23:10:09.376Z,15.07
2022-11-27T23:12:35.953Z,15.39
2022-11-27T23:15:03.016Z,14.76
2022-11-27T23:17:30.169Z,14.63
2022-11-27T23:19:56.718Z,14.69
2022-11-27T23:22:23.377Z,14.97
2022-11-27T23:24:49.910Z,14.74
2022-11-27T23:27:16.453Z,14.42
2022-11-27T23:29:43.121Z,14.44
2022-11-27T23:32:10.165Z,14.54
2022-11-27T23:34:37.175Z,14.22
2022-11-27T23:37:03.736Z,14.37
2022-11-27T23:39:30.271Z,14.21
2022-11-27T23:41:56.824Z,14.07
2022-11-27T23:44:23.692Z,13.84
2022-11-27T23:46:50.437Z,14.42
2022-11-27T23:49:17.008Z,14.28
2022-11-27T23:51:43.779Z,13.63
2022-11-27T23:54:10.810Z,13.56
2022-11-27T23:56:38.502Z,13.45
2022-11-27T23:59:05.649Z,13.30
